Time;durP1;ratioP1;P1;durP2;ratioP2;P2;SDS_P1;SDS_P2;PMS_P1;PMS_P2;Temp;Humidity;BMP_temperature;BMP_pressure;BME280_temperature;BME280_humidity;BME280_pressure;Samples;Min_cycle;Max_cycle;Signal;HPM_P1;HPM_P2
2023/07/11 00:02:01;;;;;;;5.25;3.25;;;;;;;;;;4960192;28;20061;-78
2023/07/11 00:04:29;;;;;;;4.45;3.40;;;;;;;;;;4961645;28;20051;-78
2023/07/11 00:06:56;;;;;;;5.65;4.05;;;;;;;;;;4961029;28;20498;-78
2023/07/11 00:09:24;;;;;;;4.60;3.80;;;;;;;;;;4973848;28;20058;-78
2023/07/11 00:11:54;;;;;;;4.63;3.22;;;;;;;;;;4961272;28;20051;-78
2023/07/11 00:14:22;;;;;;;4.43;3.30;;;;;;;;;;4955660;28;20047;-78
2023/07/11 00:16:49;;;;;;;3.63;3.10;;;;;;;;;;4989368;28;20088;-78
2023/07/11 00:19:19;;;;;;;5.93;3.85;;;;;;;;;;4975016;28;20043;-78
2023/07/11 00:21:47;;;;;;;7.03;4.05;;;;;;;;;;4959430;28;20051;-78
2023/07/11 00:24:17;;;;;;;6.88;3.63;;;;;;;;;;4975653;28;20054;-78
2023/07/11 00:26:48;;;;;;;4.50;3.85;;;;;;;;;;4992970;28;20058;-78
2023/07/11 00:29:20;;;;;;;4.20;3.47;;;;;;;;;;4975761;28;20055;-78
2023/07/11 00:31:52;;;;;;;3.92;3.25;;;;;;;;;;4940542;29;20074;-78
2023/07/11 00:34:21;;;;;;;4.70;3.95;;;;;;;;;;4971385;28;20070;-78
2023/07/11 00:36:50;;;;;;;4.93;3.00;;;;;;;;;;4975629;28;20494;-78
2023/07/11 00:39:20;;;;;;;5.13;3.58;;;;;;;;;;4975955;28;20043;-79
2023/07/11 00:41:49;;;;;;;6.15;4.47;;;;;;;;;;4974758;28;20062;-78
2023/07/11 00:44:17;;;;;;;4.28;3.30;;;;;;;;;;4942808;28;20048;-78
2023/07/11 00:46:44;;;;;;;4.95;3.78;;;;;;;;;;4944482;29;20054;-78
2023/07/11 00:49:15;;;;;;;4.55;3.38;;;;;;;;;;4975611;28;20047;-78
2023/07/11 00:51:48;;;;;;;5.18;3.63;;;;;;;;;;4975643;28;20051;-78
2023/07/11 00:54:19;;;;;;;3.95;3.58;;;;;;;;;;4962722;28;20058;-78
2023/07/11 00:56:49;;;;;;;3.65;3.17;;;;;;;;;;4957537;28;20058;-78
2023/07/11 00:59:18;;;;;;;4.18;3.28;;;;;;;;;;4961072;28;20349;-78
2023/07/11 01:01:50;;;;;;;5.38;3.65;;;;;;;;;;4957709;28;20066;-78
2023/07/11 01:04:19;;;;;;;3.63;3.33;;;;;;;;;;4970744;28;20421;-78
2023/07/11 01:06:50;;;;;;;5.45;4.47;;;;;;;;;;4974024;28;20299;-78
2023/07/11 01:09:17;;;;;;;3.60;2.97;;;;;;;;;;4954723;28;20051;-78
2023/07/11 01:11:58;;;;;;;5.60;3.58;;;;;;;;;;4967310;28;20513;-78
2023/07/11 01:14:26;;;;;;;6.43;4.53;;;;;;;;;;4970580;28;20054;-78
2023/07/11 01:16:54;;;;;;;3.80;3.38;;;;;;;;;;4973875;28;20058;-78
2023/07/11 01:19:24;;;;;;;4.80;3.78;;;;;;;;;;4988574;28;20074;-78
2023/07/11 01:21:53;;;;;;;6.22;3.70;;;;;;;;;;4975581;28;20055;-78
2023/07/11 01:24:21;;;;;;;3.78;3.33;;;;;;;;;;4973568;28;20052;-78
2023/07/11 01:26:50;;;;;;;4.43;4.03;;;;;;;;;;4964240;28;20051;-78
2023/07/11 01:29:18;;;;;;;5.03;3.78;;;;;;;;;;4950711;29;20059;-79
2023/07/11 01:31:46;;;;;;;3.80;3.42;;;;;;;;;;4991558;28;20277;-78
2023/07/11 01:34:15;;;;;;;4.63;3.60;;;;;;;;;;4983638;28;20044;-78
2023/07/11 01:36:43;;;;;;;5.53;3.90;;;;;;;;;;4991237;28;20051;-78
2023/07/11 01:39:14;;;;;;;4.00;3.58;;;;;;;;;;4989419;28;20054;-78
2023/07/11 01:41:41;;;;;;;4.85;3.30;;;;;;;;;;4975232;28;20047;-78
2023/07/11 01:44:14;;;;;;;3.92;3.53;;;;;;;;;;4956723;28;20074;-78
2023/07/11 01:46:43;;;;;;;5.70;3.47;;;;;;;;;;4958216;28;20318;-77
2023/07/11 01:49:11;;;;;;;3.53;3.20;;;;;;;;;;4959104;28;20062;-78
2023/07/11 01:51:38;;;;;;;4.30;3.60;;;;;;;;;;4972393;28;20058;-78
2023/07/11 01:54:10;;;;;;;4.63;3.97;;;;;;;;;;4961961;28;20066;-77
2023/07/11 01:56:39;;;;;;;4.88;3.97;;;;;;;;;;4977555;28;20067;-78
2023/07/11 01:59:06;;;;;;;4.53;3.00;;;;;;;;;;4993435;28;20047;-77
2023/07/11 02:01:35;;;;;;;3.90;3.35;;;;;;;;;;4992336;28;20394;-78
2023/07/11 02:04:05;;;;;;;4.60;3.63;;;;;;;;;;4957838;28;20070;-78
2023/07/11 02:06:32;;;;;;;4.30;3.67;;;;;;;;;;4955997;29;20426;-78
2023/07/11 02:09:02;;;;;;;4.40;3.15;;;;;;;;;;4970351;28;20055;-78
2023/07/11 02:11:31;;;;;;;5.47;4.25;;;;;;;;;;4989492;28;20513;-78
2023/07/11 02:14:00;;;;;;;5.60;3.83;;;;;;;;;;4957865;28;20058;-78
2023/07/11 02:16:27;;;;;;;5.30;3.88;;;;;;;;;;4974649;28;20054;-78
2023/07/11 02:18:59;;;;;;;4.25;3.60;;;;;;;;;;4973616;28;20054;-78
2023/07/11 02:21:26;;;;;;;5.35;4.25;;;;;;;;;;4974097;28;20059;-78
2023/07/11 02:23:56;;;;;;;4.45;3.65;;;;;;;;;;4957196;28;20054;-78
2023/07/11 02:26:23;;;;;;;5.22;3.97;;;;;;;;;;4959016;28;20057;-78
2023/07/11 02:28:50;;;;;;;4.15;3.33;;;;;;;;;;4959934;28;20051;-78
2023/07/11 02:31:21;;;;;;;3.63;3.33;;;;;;;;;;4972099;28;20063;-78
2023/07/11 02:33:51;;;;;;;5.05;4.43;;;;;;;;;;4990381;28;20046;-78
2023/07/11 02:36:22;;;;;;;5.88;4.10;;;;;;;;;;4990488;28;20055;-78
2023/07/11 02:38:50;;;;;;;5.35;4.50;;;;;;;;;;4958689;29;20055;-78
2023/07/11 02:41:19;;;;;;;6.18;4.05;;;;;;;;;;4957890;28;20062;-78
2023/07/11 02:43:50;;;;;;;6.45;4.28;;;;;;;;;;4959209;28;20046;-78
2023/07/11 02:46:21;;;;;;;5.18;3.63;;;;;;;;;;4974123;28;20052;-78
2023/07/11 02:48:48;;;;;;;5.78;3.83;;;;;;;;;;4960906;28;20065;-78
2023/07/11 02:51:18;;;;;;;4.88;4.05;;;;;;;;;;4989674;28;20087;-78
2023/07/11 02:53:46;;;;;;;4.78;3.63;;;;;;;;;;4941989;29;20066;-78
2023/07/11 02:56:13;;;;;;;4.70;4.13;;;;;;;;;;4940691;28;20062;-78
2023/07/11 02:58:40;;;;;;;4.50;4.10;;;;;;;;;;4976619;28;20517;-78
2023/07/11 03:01:08;;;;;;;7.05;3.42;;;;;;;;;;4962074;28;20051;-78
2023/07/11 03:03:37;;;;;;;5.43;4.00;;;;;;;;;;4944908;29;20043;-78
2023/07/11 03:06:06;;;;;;;5.20;4.10;;;;;;;;;;4961420;28;20058;-78
2023/07/11 03:08:36;;;;;;;4.45;3.70;;;;;;;;;;4961921;28;20055;-78
2023/07/11 03:11:03;;;;;;;5.43;3.60;;;;;;;;;;4961666;29;20054;-78
2023/07/11 03:13:30;;;;;;;5.75;4.68;;;;;;;;;;4974546;28;20047;-78
2023/07/11 03:16:02;;;;;;;7.78;3.95;;;;;;;;;;4978015;28;20054;-78
2023/07/11 03:18:32;;;;;;;5.07;3.63;;;;;;;;;;4961014;28;20055;-78
2023/07/11 03:21:04;;;;;;;3.88;3.25;;;;;;;;;;4961225;29;20055;-78
2023/07/11 03:23:34;;;;;;;3.83;3.30;;;;;;;;;;4968146;28;20047;-78
2023/07/11 03:26:01;;;;;;;5.05;4.10;;;;;;;;;;4993525;28;20050;-77
2023/07/11 03:28:29;;;;;;;5.22;3.47;;;;;;;;;;4993977;28;20051;-78
2023/07/11 03:30:59;;;;;;;4.95;4.15;;;;;;;;;;4945536;29;20429;-78
2023/07/11 03:33:29;;;;;;;4.78;3.70;;;;;;;;;;4975472;28;20052;-77
2023/07/11 03:35:58;;;;;;;5.18;3.83;;;;;;;;;;4955947;28;20058;-78
2023/07/11 03:38:27;;;;;;;4.97;3.67;;;;;;;;;;4957085;28;20047;-78
2023/07/11 03:40:54;;;;;;;6.85;3.85;;;;;;;;;;4956058;28;20062;-77
2023/07/11 03:43:21;;;;;;;5.13;3.35;;;;;;;;;;4972184;28;20051;-77
2023/07/11 03:45:49;;;;;;;4.72;3.30;;;;;;;;;;4963891;28;20054;-77
2023/07/11 03:48:16;;;;;;;4.80;3.35;;;;;;;;;;4969078;28;20058;-78
2023/07/11 03:50:43;;;;;;;5.07;3.40;;;;;;;;;;4969233;28;20047;-78
2023/07/11 03:53:11;;;;;;;4.18;3.53;;;;;;;;;;4980152;28;20062;-78
2023/07/11 03:55:44;;;;;;;7.00;4.45;;;;;;;;;;4963754;28;20058;-78
2023/07/11 03:58:16;;;;;;;4.93;4.07;;;;;;;;;;4978406;28;20066;-78
2023/07/11 04:00:43;;;;;;;6.57;4.18;;;;;;;;;;4979169;28;20047;-78
2023/07/11 04:03:11;;;;;;;5.10;4.55;;;;;;;;;;4977312;28;20054;-78
2023/07/11 04:05:38;;;;;;;8.90;3.90;;;;;;;;;;4960715;28;20039;-78
2023/07/11 04:08:07;;;;;;;4.80;3.45;;;;;;;;;;4977036;28;20054;-78
2023/07/11 04:10:38;;;;;;;3.80;3.42;;;;;;;;;;4961194;28;20051;-77
2023/07/11 04:13:09;;;;;;;4.35;3.45;;;;;;;;;;4946409;29;20047;-78
2023/07/11 04:15:38;;;;;;;5.60;3.97;;;;;;;;;;4960808;28;20043;-77
2023/07/11 04:18:08;;;;;;;4.22;3.75;;;;;;;;;;4962216;29;20058;-77
2023/07/11 04:20:36;;;;;;;4.78;4.10;;;;;;;;;;4971157;28;20047;-77
2023/07/11 04:23:05;;;;;;;4.70;4.30;;;;;;;;;;4963235;29;20059;-77
2023/07/11 04:25:33;;;;;;;5.10;3.40;;;;;;;;;;4956183;28;20047;-77
2023/07/11 04:28:00;;;;;;;5.50;4.10;;;;;;;;;;4957957;28;20070;-78
2023/07/11 04:30:29;;;;;;;4.97;3.80;;;;;;;;;;4958699;28;20395;-78
2023/07/11 04:32:56;;;;;;;4.00;3.58;;;;;;;;;;4973065;28;20047;-77
2023/07/11 04:35:23;;;;;;;5.40;4.13;;;;;;;;;;4948843;28;20043;-77
2023/07/11 04:37:50;;;;;;;5.43;4.32;;;;;;;;;;4993479;22;20054;-76
2023/07/11 04:40:20;;;;;;;7.55;4.30;;;;;;;;;;4990570;28;20072;-77
2023/07/11 04:42:49;;;;;;;4.65;4.00;;;;;;;;;;4992749;28;20053;-77
2023/07/11 04:45:19;;;;;;;7.40;4.55;;;;;;;;;;5009216;28;20057;-77
2023/07/11 04:47:47;;;;;;;4.85;3.83;;;;;;;;;;4991892;28;20078;-77
2023/07/11 04:50:15;;;;;;;4.82;3.40;;;;;;;;;;5009872;28;20042;-77
2023/07/11 04:52:43;;;;;;;7.03;4.20;;;;;;;;;;5011767;28;20057;-77
2023/07/11 04:55:10;;;;;;;4.35;3.78;;;;;;;;;;5011535;28;20037;-77
2023/07/11 04:57:37;;;;;;;4.95;4.10;;;;;;;;;;5008771;28;20042;-77
2023/07/11 05:00:11;;;;;;;4.75;3.55;;;;;;;;;;5024836;28;20073;-77
2023/07/11 05:02:38;;;;;;;6.18;4.32;;;;;;;;;;4992385;28;20061;-77
2023/07/11 05:05:08;;;;;;;4.53;4.10;;;;;;;;;;4994813;28;20053;-77
2023/07/11 05:07:35;;;;;;;4.65;3.88;;;;;;;;;;5010267;28;20049;-77
2023/07/11 05:10:06;;;;;;;4.90;4.40;;;;;;;;;;5008723;28;20780;-77
2023/07/11 05:12:35;;;;;;;6.95;3.80;;;;;;;;;;5013893;28;20054;-77
2023/07/11 05:15:02;;;;;;;5.03;3.90;;;;;;;;;;4995245;28;20045;-77
2023/07/11 05:17:30;;;;;;;4.28;3.45;;;;;;;;;;5007951;28;20054;-77
2023/07/11 05:19:57;;;;;;;5.63;5.07;;;;;;;;;;5012236;28;20054;-77
2023/07/11 05:22:27;;;;;;;5.13;4.47;;;;;;;;;;4997412;28;20053;-77
2023/07/11 05:24:55;;;;;;;5.15;4.47;;;;;;;;;;5000897;28;20056;-77
2023/07/11 05:27:24;;;;;;;4.05;3.63;;;;;;;;;;5011912;28;20511;-77
2023/07/11 05:29:53;;;;;;;5.43;4.90;;;;;;;;;;5031969;28;20049;-77
2023/07/11 05:32:21;;;;;;;5.32;3.65;;;;;;;;;;5019269;28;20056;-77
2023/07/11 05:34:48;;;;;;;5.47;3.95;;;;;;;;;;5020139;28;20034;-77
2023/07/11 05:37:16;;;;;;;5.72;4.82;;;;;;;;;;5035814;28;20032;-76
2023/07/11 05:39:49;;;;;;;5.50;3.78;;;;;;;;;;5020890;28;20054;-76
2023/07/11 05:42:16;;;;;;;5.03;4.15;;;;;;;;;;4993917;28;20054;-76
2023/07/11 05:44:43;;;;;;;5.55;4.15;;;;;;;;;;4993332;28;20496;-77
2023/07/11 05:47:15;;;;;;;6.13;4.70;;;;;;;;;;5011746;28;20045;-77
2023/07/11 05:49:43;;;;;;;5.07;4.57;;;;;;;;;;5005678;28;20555;-77
2023/07/11 05:52:10;;;;;;;5.40;4.90;;;;;;;;;;5008812;28;20046;-77
2023/07/11 05:54:37;;;;;;;4.63;4.20;;;;;;;;;;5024520;28;20112;-77
2023/07/11 05:57:08;;;;;;;5.57;4.07;;;;;;;;;;5006947;28;20054;-77
2023/07/11 05:59:35;;;;;;;6.53;4.45;;;;;;;;;;5005922;28;20058;-77
2023/07/11 06:02:06;;;;;;;6.13;4.80;;;;;;;;;;5003351;28;20041;-77
2023/07/11 06:04:33;;;;;;;6.40;5.15;;;;;;;;;;5009219;28;20046;-77
2023/07/11 06:07:01;;;;;;;5.55;5.05;;;;;;;;;;5010184;28;20398;-77
2023/07/11 06:09:30;;;;;;;6.85;4.38;;;;;;;;;;5008945;28;20065;-77
2023/07/11 06:11:58;;;;;;;5.15;4.65;;;;;;;;;;5007923;28;20060;-77
2023/07/11 06:14:29;;;;;;;5.35;3.83;;;;;;;;;;5007603;28;20050;-77
2023/07/11 06:16:56;;;;;;;6.80;4.38;;;;;;;;;;4993592;28;20050;-77
2023/07/11 06:19:23;;;;;;;5.35;4.80;;;;;;;;;;4993216;28;20050;-77
2023/07/11 06:21:50;;;;;;;5.78;3.97;;;;;;;;;;5009684;28;20397;-78
2023/07/11 06:24:20;;;;;;;4.45;4.05;;;;;;;;;;4993966;28;20050;-78
2023/07/11 06:26:50;;;;;;;5.40;4.22;;;;;;;;;;5011217;28;20048;-78
2023/07/11 06:29:17;;;;;;;6.70;4.63;;;;;;;;;;4993486;28;20054;-78
2023/07/11 06:31:48;;;;;;;5.50;4.63;;;;;;;;;;5007999;28;20046;-78
2023/07/11 06:34:15;;;;;;;4.40;4.00;;;;;;;;;;4990673;28;20077;-78
2023/07/11 06:37:37;;;;;;;5.40;4.60;;;;;;;;;;5018315;28;20523;-78
2023/07/11 06:40:08;;;;;;;6.45;5.15;;;;;;;;;;5008154;28;20046;-78
2023/07/11 06:42:36;;;;;;;5.13;4.73;;;;;;;;;;4989531;28;20054;-78
2023/07/11 06:45:07;;;;;;;3.97;3.67;;;;;;;;;;4992480;28;20061;-78
2023/07/11 06:47:38;;;;;;;5.72;4.78;;;;;;;;;;5009605;28;20057;-77
2023/07/11 06:50:08;;;;;;;5.63;3.83;;;;;;;;;;4993590;28;20045;-77
2023/07/11 06:52:36;;;;;;;4.97;4.40;;;;;;;;;;5008281;28;20069;-77
2023/07/11 06:55:03;;;;;;;7.60;4.53;;;;;;;;;;5007042;28;20046;-78
2023/07/11 06:57:33;;;;;;;5.50;4.47;;;;;;;;;;5006179;28;20058;-78
2023/07/11 07:00:03;;;;;;;5.32;4.13;;;;;;;;;;5026357;28;20046;-79
2023/07/11 07:02:33;;;;;;;4.20;3.80;;;;;;;;;;4996000;28;20061;-79
2023/07/11 07:05:02;;;;;;;4.22;3.83;;;;;;;;;;5006886;28;20053;-79
2023/07/11 07:07:32;;;;;;;4.00;3.60;;;;;;;;;;4993562;28;20522;-79
2023/07/11 07:10:00;;;;;;;5.53;4.97;;;;;;;;;;5010719;28;20485;-79
2023/07/11 07:12:31;;;;;;;5.90;5.40;;;;;;;;;;5011743;28;20050;-79
2023/07/11 07:14:58;;;;;;;5.07;4.55;;;;;;;;;;5006951;28;20057;-79
2023/07/11 07:17:25;;;;;;;5.72;5.22;;;;;;;;;;4994242;28;20041;-79
2023/07/11 07:19:55;;;;;;;5.35;4.63;;;;;;;;;;5010252;28;20049;-78
2023/07/11 07:22:24;;;;;;;7.10;4.95;;;;;;;;;;5010432;28;20512;-78
2023/07/11 07:24:51;;;;;;;6.95;5.22;;;;;;;;;;5008198;28;20385;-77
2023/07/11 07:27:18;;;;;;;6.25;5.13;;;;;;;;;;5012722;28;20057;-77
2023/07/11 07:29:48;;;;;;;4.90;4.43;;;;;;;;;;5009364;28;20049;-77
2023/07/11 07:32:18;;;;;;;6.15;5.25;;;;;;;;;;5005721;28;20416;-77
2023/07/11 07:34:48;;;;;;;5.60;4.57;;;;;;;;;;5010456;28;20049;-77
2023/07/11 07:37:20;;;;;;;6.82;4.30;;;;;;;;;;5007076;28;20046;-77
2023/07/11 07:39:49;;;;;;;6.40;5.28;;;;;;;;;;4992862;28;20049;-78
2023/07/11 07:42:16;;;;;;;5.70;4.47;;;;;;;;;;5009481;28;20046;-78
2023/07/11 07:44:47;;;;;;;5.47;4.00;;;;;;;;;;4993801;28;20058;-78
2023/07/11 07:47:19;;;;;;;6.85;5.53;;;;;;;;;;4996228;28;20052;-78
2023/07/11 07:49:47;;;;;;;6.00;4.75;;;;;;;;;;4996094;28;20068;-77
2023/07/11 07:52:17;;;;;;;6.25;4.70;;;;;;;;;;4992168;28;20077;-77
2023/07/11 07:54:44;;;;;;;8.07;4.80;;;;;;;;;;5012468;28;20057;-78
2023/07/11 07:57:13;;;;;;;5.38;4.90;;;;;;;;;;4994756;28;20045;-78
2023/07/11 07:59:40;;;;;;;5.80;4.18;;;;;;;;;;5014033;28;20057;-78
2023/07/11 08:02:09;;;;;;;5.05;4.55;;;;;;;;;;4996432;28;20385;-78
2023/07/11 08:04:38;;;;;;;5.37;4.30;;;;;;;;;;5012459;28;20061;-78
2023/07/11 08:07:06;;;;;;;5.03;4.38;;;;;;;;;;4994972;28;20408;-78
2023/07/11 08:09:40;;;;;;;;;;;;;;;;;;4994656;28;20057;-78
2023/07/11 08:12:10;;;;;;;5.38;4.32;;;;;;;;;;4996087;28;19928;-78
2023/07/11 08:14:39;;;;;;;5.47;4.97;;;;;;;;;;4995805;28;20058;-77
2023/07/11 08:17:08;;;;;;;6.72;4.32;;;;;;;;;;5000546;28;20042;-77
2023/07/11 08:19:35;;;;;;;5.38;3.90;;;;;;;;;;4993146;28;20054;-77
2023/07/11 08:22:08;;;;;;;5.10;4.60;;;;;;;;;;5012249;28;20491;-78
2023/07/11 08:24:35;;;;;;;4.93;4.40;;;;;;;;;;5011792;28;20066;-77
2023/07/11 08:27:03;;;;;;;4.60;4.18;;;;;;;;;;5013253;28;20042;-77
2023/07/11 08:29:30;;;;;;;4.90;4.30;;;;;;;;;;4993017;28;20065;-77
2023/07/11 08:31:58;;;;;;;5.78;4.47;;;;;;;;;;5005253;28;20461;-78
2023/07/11 08:34:26;;;;;;;4.68;3.63;;;;;;;;;;4990642;28;20404;-79
2023/07/11 08:36:53;;;;;;;5.55;4.05;;;;;;;;;;5011914;28;20053;-79
2023/07/11 08:39:23;;;;;;;5.18;3.78;;;;;;;;;;4995490;28;20061;-79
2023/07/11 08:41:52;;;;;;;7.82;4.68;;;;;;;;;;4998524;28;20053;-79
2023/07/11 08:44:25;;;;;;;6.35;5.32;;;;;;;;;;5007589;28;20054;-78
2023/07/11 08:47:00;;;;;;;5.18;4.68;;;;;;;;;;4985747;28;20062;-78
2023/07/11 08:49:34;;;;;;;4.68;4.10;;;;;;;;;;4994275;28;20424;-78
2023/07/11 08:52:06;;;;;;;7.78;3.92;;;;;;;;;;5011173;28;20072;-78
2023/07/11 08:54:36;;;;;;;4.88;3.60;;;;;;;;;;5015807;28;20422;-78
2023/07/11 08:57:09;;;;;;;7.95;4.40;;;;;;;;;;5010565;28;20050;-78
2023/07/11 08:59:45;;;;;;;7.22;4.95;;;;;;;;;;5011369;28;20057;-78
2023/07/11 09:02:36;;;;;;;7.15;4.88;;;;;;;;;;4993195;28;20061;-78
2023/07/11 09:05:05;;;;;;;5.07;4.67;;;;;;;;;;5022009;28;20433;-77
2023/07/11 09:07:43;;;;;;;4.93;4.53;;;;;;;;;;5011380;28;20049;-77
2023/07/11 09:10:34;;;;;;;4.38;3.97;;;;;;;;;;5006100;28;20047;-77
2023/07/11 09:13:05;;;;;;;6.10;4.25;;;;;;;;;;5010234;28;20060;-78
2023/07/11 09:15:43;;;;;;;5.50;4.45;;;;;;;;;;5011367;28;20049;-78
2023/07/11 09:18:21;;;;;;;7.45;4.60;;;;;;;;;;5010645;28;20050;-77
2023/07/11 09:20:54;;;;;;;4.40;3.95;;;;;;;;;;4988428;28;20061;-78
2023/07/11 09:23:38;;;;;;;4.40;3.72;;;;;;;;;;4990062;28;20065;-78
2023/07/11 09:26:09;;;;;;;4.87;4.37;;;;;;;;;;5008210;28;20041;-78
2023/07/11 09:28:40;;;;;;;7.95;4.22;;;;;;;;;;5012614;28;20300;-78
2023/07/11 09:31:14;;;;;;;7.07;4.60;;;;;;;;;;5008807;28;20061;-79
2023/07/11 09:33:47;;;;;;;7.10;4.90;;;;;;;;;;5004445;28;20054;-79
2023/07/11 09:36:21;;;;;;;5.13;4.72;;;;;;;;;;4989944;28;20162;-79
2023/07/11 09:38:50;;;;;;;6.40;4.53;;;;;;;;;;5016295;28;20046;-79
2023/07/11 09:41:27;;;;;;;4.80;4.38;;;;;;;;;;5009629;28;20065;-78
2023/07/11 09:43:55;;;;;;;10.30;4.68;;;;;;;;;;4992336;28;20061;-78
2023/07/11 09:46:26;;;;;;;5.13;4.63;;;;;;;;;;5014732;28;20076;-79
2023/07/11 09:48:58;;;;;;;4.53;4.07;;;;;;;;;;5010887;28;20050;-79
2023/07/11 09:51:30;;;;;;;6.38;4.63;;;;;;;;;;4994648;28;20054;-79
2023/07/11 09:53:59;;;;;;;5.45;4.32;;;;;;;;;;5006326;28;20050;-79
2023/07/11 09:56:29;;;;;;;6.38;4.63;;;;;;;;;;4994391;28;20061;-79
2023/07/11 09:58:59;;;;;;;5.35;4.85;;;;;;;;;;5008262;28;20041;-79
2023/07/11 10:01:33;;;;;;;6.55;4.53;;;;;;;;;;4993348;28;20496;-78
2023/07/11 10:04:02;;;;;;;11.10;4.93;;;;;;;;;;5006884;28;20618;-78
2023/07/11 10:06:34;;;;;;;5.53;4.05;;;;;;;;;;5009869;28;20060;-78
2023/07/11 10:09:07;;;;;;;6.40;4.40;;;;;;;;;;5007911;28;20054;-78
2023/07/11 10:11:34;;;;;;;6.07;4.32;;;;;;;;;;5011728;28;20431;-78
2023/07/11 10:14:04;;;;;;;6.53;4.63;;;;;;;;;;4991339;28;20056;-78
2023/07/11 10:16:32;;;;;;;6.65;4.18;;;;;;;;;;5005324;28;20056;-79
2023/07/11 10:19:03;;;;;;;5.93;5.32;;;;;;;;;;4996297;28;20043;-79
2023/07/11 10:21:32;;;;;;;5.18;4.65;;;;;;;;;;5010346;28;20062;-78
2023/07/11 10:23:59;;;;;;;4.13;3.80;;;;;;;;;;4993165;28;20045;-78
2023/07/11 10:26:30;;;;;;;5.88;4.80;;;;;;;;;;4990522;28;20065;-77
2023/07/11 10:29:07;;;;;;;5.50;4.47;;;;;;;;;;5021898;28;20050;-77
2023/07/11 10:31:40;;;;;;;5.93;4.53;;;;;;;;;;5008592;28;20054;-77
2023/07/11 10:34:15;;;;;;;7.38;6.05;;;;;;;;;;4988705;28;20046;-79
2023/07/11 10:36:46;;;;;;;4.72;4.30;;;;;;;;;;5008839;28;20054;-79
2023/07/11 10:39:17;;;;;;;6.00;4.72;;;;;;;;;;5020504;22;20038;-83
2023/07/11 10:41:47;;;;;;;6.63;5.38;;;;;;;;;;5077728;22;20057;-94
2023/07/11 10:44:18;;;;;;;6.67;5.03;;;;;;;;;;5035761;28;20043;-93
2023/07/11 10:46:49;;;;;;;6.33;4.93;;;;;;;;;;5031901;28;20230;-93
2023/07/11 10:49:24;;;;;;;8.48;6.65;;;;;;;;;;5028838;28;20046;-93
2023/07/11 10:51:56;;;;;;;9.15;6.40;;;;;;;;;;5024990;28;20065;-93
2023/07/11 10:54:29;;;;;;;14.23;6.50;;;;;;;;;;5021489;28;20537;-93
2023/07/11 10:57:03;;;;;;;12.73;7.35;;;;;;;;;;5019471;28;20046;-92
2023/07/11 10:59:32;;;;;;;7.80;6.53;;;;;;;;;;5024626;28;20060;-93
2023/07/11 11:02:04;;;;;;;8.38;6.55;;;;;;;;;;5022160;28;20046;-92
2023/07/11 11:04:50;;;;;;;8.85;5.57;;;;;;;;;;5004749;28;20061;-91
2023/07/11 11:07:25;;;;;;;7.45;6.15;;;;;;;;;;5020742;28;20081;-93
2023/07/11 11:09:57;;;;;;;8.80;6.00;;;;;;;;;;5024991;28;20046;-93
2023/07/11 11:12:36;;;;;;;9.45;6.55;;;;;;;;;;5020289;28;20061;-92
2023/07/11 11:15:30;;;;;;;9.50;6.40;;;;;;;;;;5011334;28;20068;-91
2023/07/11 11:18:08;;;;;;;8.82;6.38;;;;;;;;;;5025321;28;20495;-93
2023/07/11 11:20:48;;;;;;;6.53;4.13;;;;;;;;;;5029178;28;20060;-93
2023/07/11 11:23:27;;;;;;;7.35;5.88;;;;;;;;;;5025108;28;20054;-94
2023/07/11 11:26:08;;;;;;;4.13;3.72;;;;;;;;;;5031223;28;20053;-92
2023/07/11 11:28:44;;;;;;;8.15;5.40;;;;;;;;;;5013366;28;20042;-93
2023/07/11 11:31:20;;;;;;;5.95;4.95;;;;;;;;;;5033969;28;20050;-93
2023/07/11 11:34:00;;;;;;;6.88;5.05;;;;;;;;;;5027645;28;20118;-93
2023/07/11 11:36:43;;;;;;;6.70;5.18;;;;;;;;;;5021552;28;20530;-92
2023/07/11 11:39:19;;;;;;;12.00;4.93;;;;;;;;;;5034420;28;20054;-92
2023/07/11 11:41:52;;;;;;;4.82;4.32;;;;;;;;;;5028187;28;20694;-93
2023/07/11 11:44:24;;;;;;;6.68;4.15;;;;;;;;;;5025757;28;20068;-93
2023/07/11 11:46:51;;;;;;;6.22;4.80;;;;;;;;;;5018695;28;20507;-91
2023/07/11 11:49:25;;;;;;;5.70;4.47;;;;;;;;;;5035196;28;20046;-90
2023/07/11 11:51:54;;;;;;;4.60;4.20;;;;;;;;;;5032504;28;20042;-94
2023/07/11 11:54:24;;;;;;;5.55;4.80;;;;;;;;;;5032294;28;20041;-92
2023/07/11 11:56:56;;;;;;;6.93;4.85;;;;;;;;;;5022143;28;20044;-91
2023/07/11 11:59:25;;;;;;;7.60;4.70;;;;;;;;;;5039420;28;20045;-92
2023/07/11 12:02:00;;;;;;;5.97;4.32;;;;;;;;;;5038248;28;20046;-92
2023/07/11 12:05:15;;;;;;;4.82;4.38;;;;;;;;;;5039335;28;20046;-92
2023/07/11 12:08:05;;;;;;;5.53;4.53;;;;;;;;;;5019074;28;20034;-92
2023/07/11 12:10:36;;;;;;;;;;;;;;;;;;5034697;28;20054;-91
2023/07/11 12:13:18;;;;;;;5.80;5.22;;;;;;;;;;5036151;28;19905;-92
2023/07/11 12:15:53;;;;;;;5.15;4.68;;;;;;;;;;5038263;28;20029;-92
2023/07/11 12:18:41;;;;;;;8.02;4.63;;;;;;;;;;5033846;28;20041;-91
2023/07/11 12:21:42;;;;;;;5.25;3.78;;;;;;;;;;5032788;28;20038;-92
2023/07/11 12:24:22;;;;;;;7.90;5.22;;;;;;;;;;5022349;28;20035;-91
2023/07/11 12:26:52;;;;;;;9.95;5.32;;;;;;;;;;5021950;28;20038;-91
2023/07/11 12:29:40;;;;;;;7.07;4.85;;;;;;;;;;5038972;28;20033;-94
2023/07/11 12:32:37;;;;;;;9.23;4.57;;;;;;;;;;5036387;28;20042;-92
2023/07/11 12:35:14;;;;;;;5.25;4.40;;;;;;;;;;5038071;28;20026;-91
2023/07/11 12:37:48;;;;;;;6.80;4.47;;;;;;;;;;5038238;28;20049;-90
2023/07/11 12:40:18;;;;;;;5.13;4.00;;;;;;;;;;5038918;28;20030;-91
2023/07/11 12:42:51;;;;;;;6.05;5.03;;;;;;;;;;5037775;28;20034;-92
2023/07/11 12:45:20;;;;;;;4.10;3.58;;;;;;;;;;5038164;28;20029;-91
2023/07/11 12:47:51;;;;;;;10.85;5.15;;;;;;;;;;5038545;28;20046;-91
2023/07/11 12:50:26;;;;;;;8.60;4.55;;;;;;;;;;5033671;28;20050;-91
2023/07/11 12:52:58;;;;;;;6.72;4.45;;;;;;;;;;5035854;28;20061;-93
2023/07/11 12:55:27;;;;;;;5.65;4.18;;;;;;;;;;5034362;28;20038;-92
2023/07/11 12:57:58;;;;;;;4.95;4.05;;;;;;;;;;5019778;28;20034;-91
2023/07/11 13:00:29;;;;;;;6.95;4.85;;;;;;;;;;5036885;28;20060;-92
2023/07/11 13:02:59;;;;;;;5.63;4.30;;;;;;;;;;5037684;28;20034;-91
2023/07/11 13:05:26;;;;;;;6.28;4.82;;;;;;;;;;5020017;28;20052;-91
2023/07/11 13:07:54;;;;;;;5.00;4.50;;;;;;;;;;5035188;28;20057;-91
2023/07/11 13:10:24;;;;;;;7.43;5.22;;;;;;;;;;5035151;28;20029;-94
2023/07/11 13:12:52;;;;;;;4.85;4.43;;;;;;;;;;5017733;28;20050;-93
2023/07/11 13:15:25;;;;;;;6.60;5.38;;;;;;;;;;5016099;28;20046;-94
2023/07/11 13:17:53;;;;;;;8.15;4.47;;;;;;;;;;5016427;28;20050;-93
2023/07/11 13:20:27;;;;;;;8.23;4.95;;;;;;;;;;5019565;28;20069;-93
2023/07/11 13:22:55;;;;;;;5.30;4.15;;;;;;;;;;5003313;28;20046;-94
2023/07/11 13:25:28;;;;;;;4.90;4.40;;;;;;;;;;5019084;28;20054;-93
2023/07/11 13:27:58;;;;;;;5.47;4.63;;;;;;;;;;5007714;28;20065;-94
2023/07/11 13:30:35;;;;;;;6.35;4.80;;;;;;;;;;5018465;28;20053;-93
2023/07/11 13:33:14;;;;;;;5.30;4.60;;;;;;;;;;5017263;28;20053;-93
2023/07/11 13:35:50;;;;;;;5.53;4.97;;;;;;;;;;5018283;28;20128;-93
2023/07/11 13:38:17;;;;;;;5.50;5.00;;;;;;;;;;5016453;28;20054;-93
2023/07/11 13:40:45;;;;;;;4.95;4.45;;;;;;;;;;5019839;28;20068;-93
2023/07/11 13:43:17;;;;;;;4.95;4.28;;;;;;;;;;5017449;28;20057;-93
2023/07/11 13:45:46;;;;;;;7.75;4.95;;;;;;;;;;5008395;28;20046;-93
2023/07/11 13:48:20;;;;;;;7.10;5.10;;;;;;;;;;5016151;28;20046;-93
2023/07/11 13:51:04;;;;;;;4.85;4.35;;;;;;;;;;5016527;28;20050;-93
2023/07/11 13:53:39;;;;;;;6.45;4.57;;;;;;;;;;5016649;28;20400;-93
2023/07/11 13:56:07;;;;;;;4.63;3.83;;;;;;;;;;5015334;28;20454;-93
2023/07/11 13:58:34;;;;;;;8.90;4.07;;;;;;;;;;5015722;28;20053;-94
2023/07/11 14:01:03;;;;;;;5.85;4.57;;;;;;;;;;5018066;28;20061;-92
2023/07/11 14:03:31;;;;;;;4.03;3.72;;;;;;;;;;5017930;28;20050;-93
2023/07/11 14:06:00;;;;;;;5.07;4.53;;;;;;;;;;5018686;28;20054;-93
2023/07/11 14:08:30;;;;;;;7.55;5.68;;;;;;;;;;5018238;28;20054;-92
2023/07/11 14:10:57;;;;;;;4.88;4.38;;;;;;;;;;5001958;28;20046;-92
2023/07/11 14:13:26;;;;;;;7.85;6.05;;;;;;;;;;4998053;28;20062;-94
2023/07/11 14:15:55;;;;;;;4.75;4.35;;;;;;;;;;5017061;28;20061;-94
2023/07/11 14:18:27;;;;;;;6.00;5.50;;;;;;;;;;5000782;28;20050;-94
2023/07/11 14:20:54;;;;;;;8.20;5.57;;;;;;;;;;5000531;28;20630;-93
2023/07/11 14:23:24;;;;;;;8.13;4.90;;;;;;;;;;5018907;28;20058;-93
2023/07/11 14:25:53;;;;;;;6.63;5.47;;;;;;;;;;5020349;28;20061;-91
2023/07/11 14:28:20;;;;;;;6.22;4.82;;;;;;;;;;5017478;28;20060;-94
2023/07/11 14:30:48;;;;;;;8.93;5.35;;;;;;;;;;5019700;28;20045;-92
2023/07/11 14:33:17;;;;;;;5.28;4.78;;;;;;;;;;5019236;28;20057;-93
2023/07/11 14:35:49;;;;;;;8.63;5.43;;;;;;;;;;5020010;28;20060;-93
2023/07/11 14:38:21;;;;;;;5.78;5.28;;;;;;;;;;5003753;28;20054;-94
2023/07/11 14:40:50;;;;;;;7.35;4.47;;;;;;;;;;5013659;28;20046;-92
2023/07/11 14:43:21;;;;;;;5.43;4.97;;;;;;;;;;4999483;28;20045;-94
2023/07/11 14:45:49;;;;;;;5.25;4.78;;;;;;;;;;5015443;28;20066;-93
2023/07/11 14:48:17;;;;;;;5.00;4.57;;;;;;;;;;5023696;28;20046;-94
2023/07/11 14:50:51;;;;;;;6.53;5.65;;;;;;;;;;5023305;28;20049;-91
2023/07/11 14:53:30;;;;;;;5.75;5.25;;;;;;;;;;5023837;28;20050;-93
2023/07/11 14:55:57;;;;;;;9.30;5.45;;;;;;;;;;5032244;28;20038;-92
2023/07/11 14:58:25;;;;;;;5.78;5.25;;;;;;;;;;5039145;28;20210;-92
2023/07/11 15:00:53;;;;;;;8.23;4.68;;;;;;;;;;5036514;28;20026;-92
2023/07/11 15:03:29;;;;;;;6.43;5.57;;;;;;;;;;5038373;28;20056;-93
2023/07/11 15:05:58;;;;;;;5.80;5.20;;;;;;;;;;5033615;28;20046;-93